Monroe, North Carolina
Current Conditions -  °F | °C
As of 2:53 AM on Sunday 26 Oct 2014 (Local Time) from KEQY Reporting Station
Clear Clear  
Wind Chill: 53°   Ceiling: Unl
Heat Index: 53°   Visibility: 10mi
Dew Point: 44°   Wind: 7mph
Humidity: 71%   Direction: 260°W
Pressure: 29.9"   Gusts: NA
Location:  34.98°N, 80.55°W
Report Text: KEQY 260653Z AUTO 26006KT 10SM CLR 12/07 A2990 RMK AO2 SLP130 T01170067
Loading
Personal Weather Stations






























Interactive Weather Map New forecast layout! Learn more

10-Day Weather Forecast

Advertisements
Track Severe Weather on mobile